HEMM

Mersa Matruh Airport

Mersa Matruh, Egypt
TAF HEMM 191700Z 1918/2024 36011KT 9999 FEW020
Issued Valid From Valid To
Sep-19 @ 17:00 UTC
(6 hours ago)
Sep-19 @ 18:00 UTC
(5 hours ago)
Sep-21 @ 00:00 UTC
(-1 days ago)
Sep-19 @ 18:00 to Sep-21 @ 00:00
TAF HEMM 191700Z 1918/2024 36011KT 9999 FEW020
Wind Visibility Clouds
360° at 11 knots 10,000+ meters
  • Few at 2,000' AGL
TAF HEMM 191700Z 1918/2024 36011KT 9999 FEW020
Issued Sep-19 @ 17:00 UTC
(6 hours ago)
Valid From Sep-19 @ 18:00 UTC
(5 hours ago)
Valid To Sep-21 @ 00:00 UTC
(-1 days ago)
Sep-19 @ 18:00 - Sep-21 @ 00:00
Wind Visibility
360° at 11 knots 10,000+ meters
Clouds
  • Few at 2,000' AGL